createdAt,value
2023-07-10T00:02:33.447Z,96805.14
2023-07-10T00:05:39.053Z,96805.87
2023-07-10T00:08:51.428Z,96808.29
2023-07-10T00:11:45.033Z,96810.95
2023-07-10T00:14:43.739Z,96811.41
2023-07-10T00:18:00.137Z,96810.95
2023-07-10T00:20:52.024Z,96813.26
2023-07-10T00:24:07.027Z,96813.26
2023-07-10T00:27:00.380Z,96809.25
2023-07-10T00:30:04.838Z,96803.41
2023-07-10T00:33:17.226Z,96807.71
2023-07-10T00:36:52.881Z,96813.30
2023-07-10T00:39:48.086Z,96809.55
2023-07-10T00:42:52.036Z,96806.92
2023-07-10T00:45:55.313Z,96808.47
2023-07-10T00:48:57.622Z,96807.48
2023-07-10T00:52:02.574Z,96809.23
2023-07-10T00:55:12.422Z,96810.21
2023-07-10T00:57:50.170Z,96815.74
2023-07-10T01:00:59.337Z,96814.11
2023-07-10T01:04:04.249Z,96814.63
2023-07-10T01:07:05.407Z,96817.15
2023-07-10T01:10:18.318Z,96817.48
2023-07-10T01:13:13.160Z,96815.41
2023-07-10T01:16:24.351Z,96812.95
2023-07-10T01:19:38.761Z,96811.50
2023-07-10T01:22:19.193Z,96812.20
2023-07-10T01:25:24.501Z,96815.19
2023-07-10T01:28:22.703Z,96815.77
2023-07-10T01:31:37.590Z,96824.73
2023-07-10T01:34:36.821Z,96827.52
2023-07-10T01:37:48.976Z,96824.34
2023-07-10T01:41:06.372Z,96825.10
2023-07-10T01:43:58.389Z,96825.77
2023-07-10T01:46:51.739Z,96822.06
2023-07-10T01:49:55.858Z,96822.87
2023-07-10T01:52:45.267Z,96824.91
2023-07-10T01:55:44.789Z,96826.16
2023-07-10T01:58:54.384Z,96823.23
2023-07-10T02:02:16.748Z,96822.51
2023-07-10T02:05:28.235Z,96819.77
2023-07-10T02:08:28.139Z,96817.98
2023-07-10T02:11:27.546Z,96818.27
2023-07-10T02:14:41.906Z,96818.16
2023-07-10T02:17:53.425Z,96809.58
2023-07-10T02:20:56.531Z,96805.54
2023-07-10T02:23:51.434Z,96804.08
2023-07-10T02:27:03.697Z,96810.05
2023-07-10T03:11:41.678Z,96810.13
2023-07-10T03:21:31.356Z,96816.79
2023-07-10T03:27:33.511Z,96814.56
2023-07-10T03:30:51.106Z,96815.80
2023-07-10T03:33:55.332Z,96815.91
2023-07-10T03:36:56.925Z,96817.27
2023-07-10T03:40:14.984Z,96821.36
2023-07-10T03:43:15.813Z,96815.27
2023-07-10T03:46:18.340Z,96812.30
2023-07-10T03:49:45.775Z,96810.05
2023-07-10T03:53:09.669Z,96807.59
2023-07-10T03:56:18.248Z,96806.94
2023-07-10T03:59:30.364Z,96805.77
2023-07-10T04:02:41.609Z,96798.77
2023-07-10T04:05:53.060Z,96796.08
2023-07-10T04:09:06.962Z,96800.41
2023-07-10T04:12:01.947Z,96794.25
2023-07-10T04:15:39.360Z,96791.23
2023-07-10T04:18:45.268Z,96790.84
2023-07-10T04:21:44.964Z,96790.40
2023-07-10T04:24:36.783Z,96787.59
2023-07-10T04:27:20.817Z,96784.11
2023-07-10T04:30:18.363Z,96785.33
2023-07-10T04:33:38.714Z,96784.14
2023-07-10T04:36:43.076Z,96782.33
2023-07-10T04:39:47.351Z,96782.88
2023-07-10T04:43:02.040Z,96781.08
2023-07-10T04:45:56.719Z,96785.28
2023-07-10T04:48:41.416Z,96783.45
2023-07-10T04:51:44.545Z,96783.92
2023-07-10T04:54:58.660Z,96778.39
2023-07-10T04:57:59.529Z,96782.95
2023-07-10T05:01:02.363Z,96784.05
2023-07-10T05:03:54.730Z,96776.98
2023-07-10T05:06:41.777Z,96774.65
2023-07-10T05:09:37.023Z,96776.50
2023-07-10T05:12:24.473Z,96772.30
2023-07-10T05:15:44.023Z,96772.73
2023-07-10T05:18:28.282Z,96767.61
2023-07-10T05:21:04.221Z,96770.61
2023-07-10T05:24:16.410Z,96769.83
2023-07-10T05:26:58.822Z,96771.55
2023-07-10T05:29:51.483Z,96765.72
2023-07-10T05:32:38.353Z,96769.42
2023-07-10T05:35:10.429Z,96762.88
2023-07-10T05:37:44.916Z,96763.39
2023-07-10T05:40:25.120Z,96758.23
2023-07-10T05:43:04.995Z,96760.79
2023-07-10T05:45:36.230Z,96760.10
2023-07-10T05:48:18.255Z,96755.55
2023-07-10T05:50:50.840Z,96751.58
2023-07-10T05:53:25.652Z,96747.10
2023-07-10T05:56:16.712Z,96744.60
2023-07-10T05:58:57.247Z,96746.17
2023-07-10T06:01:32.612Z,96745.25
2023-07-10T06:04:11.110Z,96738.41
2023-07-10T06:06:42.862Z,96739.05
2023-07-10T06:09:16.565Z,96732.46
2023-07-10T06:11:58.077Z,96734.85
2023-07-10T06:14:31.863Z,96732.45
2023-07-10T06:17:03.334Z,96731.77
2023-07-10T06:19:33.922Z,96722.55
2023-07-10T06:22:10.375Z,96720.51
2023-07-10T06:24:46.361Z,96723.27
2023-07-10T06:27:24.935Z,96722.38
2023-07-10T06:29:55.547Z,96716.30
2023-07-10T06:32:26.535Z,96715.01
2023-07-10T06:34:57.046Z,96716.55
2023-07-10T06:37:31.537Z,96712.88
2023-07-10T06:40:18.509Z,96708.94
2023-07-10T06:42:49.458Z,96709.84
2023-07-10T06:45:21.933Z,96710.70
2023-07-10T06:47:58.625Z,96709.79
2023-07-10T06:50:32.161Z,96702.69
2023-07-10T06:53:15.303Z,96705.83
2023-07-10T06:55:59.756Z,96705.70
2023-07-10T06:58:34.087Z,96706.41
2023-07-10T07:01:05.656Z,96705.16
2023-07-10T07:03:34.892Z,96703.99
2023-07-10T07:06:08.386Z,96706.20
2023-07-10T07:08:38.457Z,96706.01
2023-07-10T07:11:09.277Z,96709.36
2023-07-10T07:13:38.244Z,96707.96
2023-07-10T07:16:09.323Z,96705.16
2023-07-10T07:18:39.302Z,96701.05
2023-07-10T07:21:15.311Z,96697.41
2023-07-10T07:23:44.978Z,96696.81
2023-07-10T07:26:15.597Z,96700.70
2023-07-10T07:28:46.509Z,96699.67
2023-07-10T07:31:18.862Z,96703.84
2023-07-10T07:33:50.671Z,96700.30
2023-07-10T07:36:21.317Z,96702.35
2023-07-10T07:38:51.767Z,96699.00
2023-07-10T07:41:24.137Z,96702.66
2023-07-10T07:43:53.186Z,96698.19
2023-07-10T07:46:23.015Z,96694.96
2023-07-10T07:48:53.423Z,96696.20
2023-07-10T07:51:23.826Z,96691.14
2023-07-10T07:54:05.439Z,96691.67
2023-07-10T07:56:35.929Z,96695.26
2023-07-10T07:59:06.583Z,96692.75
2023-07-10T08:01:36.961Z,96688.22
2023-07-10T08:04:07.450Z,96688.31
2023-07-10T08:06:38.220Z,96683.66
2023-07-10T08:09:07.431Z,96684.05
2023-07-10T08:11:39.089Z,96686.29
2023-07-10T08:14:08.189Z,96687.00
2023-07-10T08:16:38.949Z,96683.00
2023-07-10T08:19:09.043Z,96684.91
2023-07-10T08:21:39.649Z,96683.22
2023-07-10T08:24:09.866Z,96682.56
2023-07-10T08:26:40.306Z,96686.30
2023-07-10T08:29:30.443Z,96686.14
2023-07-10T08:32:02.205Z,96688.58
2023-07-10T08:34:33.186Z,96688.63
2023-07-10T08:37:04.265Z,96688.05
2023-07-10T08:39:33.257Z,96687.96
2023-07-10T08:42:17.416Z,96696.17
2023-07-10T08:44:53.834Z,96689.88
2023-07-10T08:47:28.452Z,96690.21
2023-07-10T08:50:23.798Z,96682.24
2023-07-10T08:53:14.234Z,96682.80
2023-07-10T08:56:12.025Z,96679.74
2023-07-10T08:58:42.268Z,96684.00
2023-07-10T09:01:30.332Z,96684.82
2023-07-10T09:04:01.904Z,96690.70
2023-07-10T09:06:41.855Z,96689.70
2023-07-10T09:09:37.286Z,96694.46
2023-07-10T09:12:21.728Z,96692.11
2023-07-10T09:15:16.346Z,96688.33
2023-07-10T09:17:49.503Z,96687.21
2023-07-10T09:20:23.755Z,96689.96
2023-07-10T09:23:19.750Z,96687.94
2023-07-10T09:25:56.234Z,96685.30
2023-07-10T09:28:27.318Z,96691.69
2023-07-10T09:31:11.209Z,96686.18
2023-07-10T09:33:44.864Z,96684.70
2023-07-10T09:36:21.321Z,96686.65
2023-07-10T09:38:54.299Z,96679.64
2023-07-10T09:41:27.422Z,96677.69
2023-07-10T09:44:05.732Z,96684.10
2023-07-10T09:46:38.154Z,96681.70
2023-07-10T09:49:23.040Z,96682.44
2023-07-10T09:52:02.713Z,96678.97
2023-07-10T09:54:38.562Z,96670.88
2023-07-10T09:57:19.786Z,96677.67
2023-07-10T09:59:55.912Z,96675.52
2023-07-10T10:02:44.676Z,96675.31
2023-07-10T10:05:14.699Z,96673.82
2023-07-10T10:07:48.897Z,96672.67
2023-07-10T10:10:23.227Z,96674.09
2023-07-10T10:12:59.536Z,96678.66
2023-07-10T10:15:45.058Z,96682.86
2023-07-10T10:18:37.597Z,96678.61
2023-07-10T10:21:13.323Z,96676.63
2023-07-10T10:23:49.848Z,96677.11
2023-07-10T10:27:08.286Z,96673.78
2023-07-10T10:29:55.455Z,96672.30
2023-07-10T10:32:55.610Z,96671.48
2023-07-10T10:35:47.788Z,96675.61
2023-07-10T10:38:47.359Z,96670.39
2023-07-10T10:41:44.351Z,96665.43
2023-07-10T10:44:31.329Z,96667.55
2023-07-10T10:47:06.913Z,96672.32
2023-07-10T10:50:04.564Z,96671.27
2023-07-10T10:52:54.001Z,96659.23
2023-07-10T10:55:59.932Z,96653.73
2023-07-10T10:58:37.835Z,96650.48
2023-07-10T11:01:38.836Z,96657.98
2023-07-10T11:04:33.175Z,96658.09
2023-07-10T11:07:13.317Z,96652.80
2023-07-10T11:09:57.508Z,96647.94
2023-07-10T11:12:34.950Z,96645.48
2023-07-10T11:15:19.772Z,96639.63
2023-07-10T11:17:53.833Z,96646.09
2023-07-10T11:20:26.969Z,96641.59
2023-07-10T11:23:05.937Z,96637.45
2023-07-10T11:25:45.606Z,96633.44
2023-07-10T11:28:28.666Z,96634.77
2023-07-10T11:31:33.696Z,96629.88
2023-07-10T11:34:17.092Z,96628.98
2023-07-10T11:36:48.138Z,96627.49
2023-07-10T11:39:37.074Z,96627.48
2023-07-10T11:42:16.079Z,96621.38
2023-07-10T11:44:54.510Z,96623.69
2023-07-10T11:47:30.893Z,96620.58
2023-07-10T11:50:02.858Z,96612.67
2023-07-10T11:52:35.119Z,96620.05
2023-07-10T11:55:12.679Z,96619.23
2023-07-10T11:57:45.296Z,96617.43
2023-07-10T12:00:15.006Z,96620.69
2023-07-10T12:02:50.298Z,96614.54
2023-07-10T12:05:25.236Z,96619.23
2023-07-10T12:08:02.481Z,96619.45
2023-07-10T12:10:42.254Z,96621.52
2023-07-10T12:13:25.412Z,96621.85
2023-07-10T12:15:59.085Z,96618.66
2023-07-10T12:18:34.646Z,96620.08
2023-07-10T12:21:12.550Z,96619.77
2023-07-10T12:23:54.649Z,96619.46
2023-07-10T12:27:05.795Z,96615.45
2023-07-10T12:29:19.040Z,96613.83
2023-07-10T12:31:50.279Z,96604.91
2023-07-10T12:34:27.032Z,96603.06
2023-07-10T12:37:02.284Z,96601.87
2023-07-10T12:39:34.056Z,96598.59
2023-07-10T12:42:24.774Z,96596.75
2023-07-10T12:44:55.298Z,96603.39
2023-07-10T12:47:27.098Z,96594.56
2023-07-10T12:50:01.053Z,96593.98
2023-07-10T12:52:38.006Z,96598.48
2023-07-10T12:55:18.314Z,96586.48
2023-07-10T12:57:50.700Z,96584.43
2023-07-10T13:00:20.806Z,96590.77
2023-07-10T13:02:53.366Z,96585.30
2023-07-10T13:05:30.976Z,96582.69
2023-07-10T13:08:03.789Z,96580.15
2023-07-10T13:10:45.586Z,96586.23
2023-07-10T13:13:22.256Z,96585.56
2023-07-10T13:15:52.555Z,96578.28
2023-07-10T13:18:27.024Z,96588.79
2023-07-10T13:20:56.940Z,96585.84
2023-07-10T13:23:27.020Z,96588.27
2023-07-10T13:25:57.958Z,96581.06
2023-07-10T13:28:48.018Z,96584.20
2023-07-10T13:31:24.448Z,96577.98
2023-07-10T13:33:58.033Z,96574.17
2023-07-10T13:36:29.026Z,96569.21
2023-07-10T13:39:01.947Z,96574.41
2023-07-10T13:41:32.668Z,96575.19
2023-07-10T13:44:02.771Z,96569.70
2023-07-10T13:46:34.516Z,96567.00
2023-07-10T13:49:11.867Z,96568.61
2023-07-10T13:51:42.931Z,96562.00
2023-07-10T13:54:14.022Z,96559.76
2023-07-10T13:56:47.413Z,96556.48
2023-07-10T13:59:19.901Z,96552.96
2023-07-10T14:01:52.034Z,96553.17
2023-07-10T14:04:24.669Z,96550.66
2023-07-10T14:06:54.168Z,96552.55
2023-07-10T14:09:24.060Z,96554.02
2023-07-10T14:11:53.240Z,96546.86
2023-07-10T14:14:24.192Z,96545.36
2023-07-10T14:16:54.914Z,96551.08
2023-07-10T14:19:27.330Z,96550.73
2023-07-10T14:21:57.045Z,96551.69
2023-07-10T14:24:26.829Z,96552.70
2023-07-10T14:26:56.896Z,96551.62
2023-07-10T14:29:27.894Z,96550.13
2023-07-10T14:31:58.664Z,96550.08
2023-07-10T14:34:29.462Z,96544.71
2023-07-10T14:37:00.560Z,96543.92
2023-07-10T14:39:31.447Z,96543.34
2023-07-10T14:42:01.295Z,96542.22
2023-07-10T14:44:30.241Z,96534.81
2023-07-10T14:47:07.561Z,96526.79
2023-07-10T14:49:39.558Z,96527.58
2023-07-10T14:52:19.406Z,96527.92
2023-07-10T14:54:54.839Z,96522.73
2023-07-10T14:57:39.572Z,96521.49
2023-07-10T15:00:22.753Z,96519.41
2023-07-10T15:02:53.939Z,96511.37
2023-07-10T15:05:25.300Z,96508.68
2023-07-10T15:07:58.653Z,96509.08
2023-07-10T15:10:30.043Z,96514.84
2023-07-10T15:13:03.709Z,96512.20
2023-07-10T15:15:38.530Z,96512.59
2023-07-10T15:18:15.425Z,96511.48
2023-07-10T15:20:47.040Z,96514.17
2023-07-10T15:23:26.550Z,96509.52
2023-07-10T15:26:06.372Z,96509.96
2023-07-10T15:28:37.589Z,96510.17
2023-07-10T15:31:11.187Z,96513.27
2023-07-10T15:33:44.365Z,96516.48
2023-07-10T15:36:20.688Z,96509.05
2023-07-10T15:38:51.157Z,96516.10
2023-07-10T15:41:26.669Z,96516.52
2023-07-10T15:43:57.189Z,96512.80
2023-07-10T15:46:28.089Z,96511.02
2023-07-10T15:48:58.319Z,96511.11
2023-07-10T15:51:29.758Z,96508.98
2023-07-10T15:53:58.817Z,96509.45
2023-07-10T15:56:29.731Z,96507.31
2023-07-10T15:59:00.452Z,96506.08
2023-07-10T16:01:30.566Z,96505.80
2023-07-10T16:04:00.776Z,96501.63
2023-07-10T16:06:31.185Z,96501.59
2023-07-10T16:09:02.050Z,96506.42
2023-07-10T16:11:32.768Z,96505.31
2023-07-10T16:14:03.505Z,96507.48
2023-07-10T16:16:34.252Z,96505.36
2023-07-10T16:19:04.954Z,96506.98
2023-07-10T16:21:35.737Z,96510.51
2023-07-10T16:24:15.419Z,96506.58
2023-07-10T16:26:48.818Z,96509.55
2023-07-10T16:29:19.576Z,96511.52
2023-07-10T16:31:50.865Z,96508.52
2023-07-10T16:34:22.957Z,96507.46
2023-07-10T16:36:54.405Z,96506.98
2023-07-10T16:39:24.935Z,96504.14
2023-07-10T16:41:57.423Z,96500.75
2023-07-10T16:44:28.376Z,96503.73
2023-07-10T16:46:58.958Z,96505.54
2023-07-10T16:49:29.953Z,96504.35
2023-07-10T16:52:00.838Z,96503.33
2023-07-10T16:54:31.833Z,96503.75
2023-07-10T16:57:00.958Z,96505.31
2023-07-10T16:59:31.964Z,96504.65
2023-07-10T17:02:04.447Z,96507.20
2023-07-10T17:04:34.948Z,96515.91
2023-07-10T17:07:05.197Z,96511.80
2023-07-10T17:09:35.675Z,96515.36
2023-07-10T17:12:05.683Z,96514.20
2023-07-10T17:14:36.555Z,96518.14
2023-07-10T17:17:25.465Z,96520.77
2023-07-10T17:19:57.149Z,96520.23
2023-07-10T17:22:34.161Z,96517.77
2023-07-10T17:25:13.769Z,96517.45
2023-07-10T17:27:46.772Z,96520.72
2023-07-10T17:30:17.642Z,96526.67
2023-07-10T17:32:49.052Z,96530.39
2023-07-10T17:35:21.630Z,96532.58
2023-07-10T17:37:54.366Z,96530.45
2023-07-10T17:40:24.968Z,96532.27
2023-07-10T17:42:56.487Z,96536.09
2023-07-10T17:45:26.722Z,96536.72
2023-07-10T17:47:57.018Z,96534.09
2023-07-10T17:50:27.204Z,96531.66
2023-07-10T17:52:58.208Z,96529.73
2023-07-10T17:55:27.356Z,96532.25
2023-07-10T17:58:06.258Z,96533.81
2023-07-10T18:00:36.609Z,96527.03
2023-07-10T18:03:06.862Z,96521.11
2023-07-10T18:05:40.198Z,96514.72
2023-07-10T18:08:22.158Z,96515.43
2023-07-10T18:11:01.605Z,96511.81
2023-07-10T18:13:40.753Z,96510.49
2023-07-10T18:16:12.532Z,96507.98
2023-07-10T18:18:42.543Z,96512.20
2023-07-10T18:21:22.939Z,96513.89
2023-07-10T18:23:54.987Z,96517.63
2023-07-10T18:26:29.901Z,96519.27
2023-07-10T18:28:59.779Z,96526.48
2023-07-10T18:31:32.486Z,96525.43
2023-07-10T18:34:03.006Z,96521.66
2023-07-10T18:36:34.886Z,96522.16
2023-07-10T18:39:05.824Z,96528.73
2023-07-10T18:41:37.675Z,96529.98
2023-07-10T18:44:14.900Z,96534.36
2023-07-10T18:46:47.422Z,96539.20
2023-07-10T18:49:23.551Z,96544.59
2023-07-10T18:51:54.209Z,96549.81
2023-07-10T18:54:25.050Z,96547.73
2023-07-10T18:56:55.465Z,96553.27
2023-07-10T18:59:28.566Z,96552.71
2023-07-10T19:01:57.825Z,96554.95
2023-07-10T19:04:28.832Z,96557.58
2023-07-10T19:06:59.018Z,96555.86
2023-07-10T19:09:32.490Z,96552.20
2023-07-10T19:12:08.572Z,96553.24
2023-07-10T19:14:38.412Z,96551.79
2023-07-10T19:17:15.830Z,96553.18
2023-07-10T19:19:54.236Z,96556.13
2023-07-10T19:22:25.846Z,96555.05
2023-07-10T19:25:05.182Z,96550.16
2023-07-10T19:27:39.296Z,96553.13
2023-07-10T19:30:17.992Z,96552.02
2023-07-10T19:32:48.780Z,96555.83
2023-07-10T19:35:20.061Z,96558.20
2023-07-10T19:37:50.654Z,96567.16
2023-07-10T19:40:24.992Z,96567.23
2023-07-10T19:42:59.617Z,96565.16
2023-07-10T19:45:30.540Z,96560.20
2023-07-10T19:48:25.980Z,96561.29
2023-07-10T19:50:57.182Z,96564.06
2023-07-10T19:53:33.261Z,96562.34
2023-07-10T19:56:21.021Z,96566.60
2023-07-10T19:58:53.953Z,96569.80
2023-07-10T20:01:28.002Z,96566.74
2023-07-10T20:04:09.221Z,96572.76
2023-07-10T20:06:42.627Z,96572.35
2023-07-10T20:09:21.136Z,96573.65
2023-07-10T20:11:52.501Z,96575.33
2023-07-10T20:14:23.185Z,96574.59
2023-07-10T20:17:06.119Z,96571.52
2023-07-10T20:19:35.951Z,96570.01
2023-07-10T20:22:11.561Z,96570.17
2023-07-10T20:24:45.819Z,96574.70
2023-07-10T20:27:26.647Z,96579.79
2023-07-10T20:29:57.984Z,96587.10
2023-07-10T20:32:38.369Z,96583.95
2023-07-10T20:35:19.304Z,96584.83
2023-07-10T20:38:03.489Z,96581.05
2023-07-10T20:40:34.857Z,96578.45
2023-07-10T20:43:31.257Z,96573.55
2023-07-10T20:46:21.761Z,96568.23
2023-07-10T20:49:14.960Z,96573.45
2023-07-10T20:51:49.746Z,96567.27
2023-07-10T20:54:29.121Z,96566.86
2023-07-10T20:57:01.066Z,96567.08
2023-07-10T20:59:35.512Z,96562.98
2023-07-10T21:02:21.431Z,96559.75
2023-07-10T21:04:52.516Z,96558.43
2023-07-10T21:07:26.569Z,96561.49
2023-07-10T21:10:11.670Z,96563.27
2023-07-10T21:12:42.544Z,96558.69
2023-07-10T21:15:16.785Z,96556.08
2023-07-10T21:17:47.573Z,96552.90
2023-07-10T21:20:20.073Z,96554.36
2023-07-10T21:22:50.899Z,96550.79
2023-07-10T21:25:29.886Z,96551.27
2023-07-10T21:28:04.093Z,96551.39
2023-07-10T21:30:39.255Z,96550.28
2023-07-10T21:33:28.503Z,96552.31
2023-07-10T21:36:05.685Z,96553.20
2023-07-10T21:38:36.638Z,96551.95
2023-07-10T21:41:17.364Z,96553.24
2023-07-10T21:43:54.327Z,96550.98
2023-07-10T21:46:46.097Z,96554.58
2023-07-10T21:49:19.898Z,96553.23
2023-07-10T21:52:00.398Z,96549.41
2023-07-10T21:54:40.365Z,96549.77
2023-07-10T21:57:22.869Z,96542.90
2023-07-10T21:59:57.587Z,96543.25
2023-07-10T22:02:39.764Z,96542.01
2023-07-10T22:05:41.915Z,96547.33
2023-07-10T22:08:12.788Z,96544.73
2023-07-10T22:10:54.663Z,96541.13
2023-07-10T22:13:51.696Z,96546.30
2023-07-10T22:16:27.373Z,96544.55
2023-07-10T22:19:12.598Z,96546.97
2023-07-10T22:21:46.821Z,96545.89
2023-07-10T22:24:20.460Z,96543.89
2023-07-10T22:27:14.228Z,96538.31
2023-07-10T22:29:44.851Z,96540.81
2023-07-10T22:32:41.459Z,96534.31
2023-07-10T22:35:14.921Z,96531.88
2023-07-10T22:37:53.998Z,96529.42
2023-07-10T22:41:02.996Z,96524.08
2023-07-10T22:43:46.879Z,96517.71
2023-07-10T22:46:25.185Z,96517.74
2023-07-10T22:49:10.811Z,96514.11
2023-07-10T22:51:49.879Z,96514.61
2023-07-10T22:54:30.424Z,96509.13
2023-07-10T22:57:25.445Z,96509.13
2023-07-10T23:00:08.414Z,96511.25
2023-07-10T23:02:46.128Z,96507.58
2023-07-10T23:05:27.749Z,96514.77
2023-07-10T23:08:14.673Z,96515.58
2023-07-10T23:11:08.436Z,96511.50
2023-07-10T23:13:51.788Z,96502.42
2023-07-10T23:16:36.016Z,96502.58
2023-07-10T23:19:59.247Z,96502.65
2023-07-10T23:22:42.022Z,96501.25
2023-07-10T23:25:27.851Z,96500.44
2023-07-10T23:28:02.298Z,96500.30
2023-07-10T23:30:46.260Z,96499.88
2023-07-10T23:33:23.262Z,96506.28
2023-07-10T23:36:21.773Z,96507.45
2023-07-10T23:39:05.019Z,96504.80
2023-07-10T23:41:41.491Z,96499.70
2023-07-10T23:44:24.811Z,96496.58
2023-07-10T23:47:17.072Z,96494.06
2023-07-10T23:49:48.565Z,96500.29
2023-07-10T23:52:41.527Z,96501.52
2023-07-10T23:55:13.298Z,96496.77
2023-07-10T23:57:51.380Z,96497.61
